Time;durP1;ratioP1;P1;durP2;ratioP2;P2;SDS_P1;SDS_P2;PMS_P1;PMS_P2;Temp;Humidity;BMP_temperature;BMP_pressure;BME280_temperature;BME280_humidity;BME280_pressure;Samples;Min_cycle;Max_cycle;Signal;HPM_P1;HPM_P2
2022/05/19 00:01:22;;;;;;;2.67;1.27;;;15.10;99.90;;;;;;5074393;28;20029;-65
2022/05/19 00:03:48;;;;;;;3.67;1.10;;;15.10;99.90;;;;;;5081732;28;20035;-66
2022/05/19 00:06:14;;;;;;;2.00;1.10;;;15.10;99.90;;;;;;5094655;28;20035;-66
2022/05/19 00:08:40;;;;;;;3.70;1.38;;;15.00;99.90;;;;;;5094214;28;20049;-65
2022/05/19 00:11:12;;;;;;;2.78;1.20;;;15.10;99.90;;;;;;5083135;28;20089;-65
2022/05/19 00:13:39;;;;;;;3.63;1.15;;;15.00;99.90;;;;;;5074122;28;20017;-65
2022/05/19 00:16:05;;;;;;;3.05;1.33;;;15.00;99.90;;;;;;5074198;28;20016;-65
2022/05/19 00:18:31;;;;;;;5.65;1.45;;;15.00;99.90;;;;;;5073759;28;20381;-65
2022/05/19 00:20:57;;;;;;;2.70;1.35;;;14.90;99.90;;;;;;5090234;28;20415;-65
2022/05/19 00:23:23;;;;;;;4.68;1.60;;;14.80;99.90;;;;;;5094498;28;20043;-65
2022/05/19 00:25:49;;;;;;;3.95;1.85;;;14.80;99.90;;;;;;5104053;28;20044;-64
2022/05/19 00:28:15;;;;;;;8.35;2.03;;;14.80;99.90;;;;;;5092569;28;20034;-64
2022/05/19 00:30:41;;;;;;;5.32;2.35;;;14.80;99.90;;;;;;5092738;28;20124;-65
2022/05/19 00:33:08;;;;;;;7.65;2.25;;;14.70;99.90;;;;;;5093014;28;20032;-64
2022/05/19 00:35:36;;;;;;;3.38;2.00;;;14.70;99.90;;;;;;5093029;28;20059;-65
2022/05/19 00:38:02;;;;;;;4.80;3.03;;;14.80;99.90;;;;;;5092607;28;20050;-64
2022/05/19 00:40:27;;;;;;;8.98;1.67;;;14.80;99.90;;;;;;5091556;28;20024;-66
2022/05/19 00:42:53;;;;;;;3.40;1.85;;;14.90;99.90;;;;;;5092923;28;20112;-66
2022/05/19 00:45:27;;;;;;;4.43;1.67;;;14.90;99.90;;;;;;5092490;28;20460;-65
2022/05/19 00:47:59;;;;;;;2.65;1.98;;;14.90;99.90;;;;;;5092876;28;20020;-65
2022/05/19 00:50:40;;;;;;;4.05;2.03;;;14.90;99.90;;;;;;5092111;28;20496;-66
2022/05/19 00:53:11;;;;;;;4.38;1.60;;;14.90;99.90;;;;;;5084844;28;20500;-65
2022/05/19 00:55:42;;;;;;;3.38;1.77;;;14.80;99.90;;;;;;5105545;28;20092;-65
2022/05/19 00:58:33;;;;;;;3.80;1.77;;;14.80;99.90;;;;;;5113871;28;20015;-65
2022/05/19 01:00:59;;;;;;;4.63;1.73;;;14.80;99.90;;;;;;5108891;27;20127;-66
2022/05/19 01:03:28;;;;;;;3.30;1.73;;;14.80;99.90;;;;;;5092558;28;20119;-65
2022/05/19 01:06:00;;;;;;;3.30;1.45;;;14.80;99.90;;;;;;5091439;28;20024;-65
2022/05/19 01:08:51;;;;;;;2.45;1.70;;;14.70;99.90;;;;;;5088257;28;20490;-66
2022/05/19 01:11:18;;;;;;;3.42;1.33;;;14.70;99.90;;;;;;5088577;28;20050;-65
2022/05/19 01:13:44;;;;;;;2.17;1.55;;;14.70;99.90;;;;;;5092002;28;20419;-65
2022/05/19 01:16:10;;;;;;;2.05;1.23;;;14.70;99.90;;;;;;5087934;28;20460;-65
2022/05/19 01:18:38;;;;;;;4.35;1.98;;;14.70;99.90;;;;;;5091460;28;20028;-65
2022/05/19 01:21:06;;;;;;;2.67;1.25;;;14.70;99.90;;;;;;5088594;28;20059;-65
2022/05/19 01:23:47;;;;;;;1.73;1.13;;;14.60;99.90;;;;;;5090614;28;20064;-65
2022/05/19 01:26:27;;;;;;;3.13;1.42;;;14.60;99.90;;;;;;5090826;28;20412;-65
2022/05/19 01:28:55;;;;;;;3.13;1.40;;;14.60;99.90;;;;;;5091467;28;20020;-66
2022/05/19 01:31:37;;;;;;;2.63;1.73;;;14.50;99.90;;;;;;5091927;28;20127;-65
2022/05/19 01:34:06;;;;;;;2.50;1.50;;;14.50;99.90;;;;;;5090059;28;20507;-65
2022/05/19 01:36:32;;;;;;;4.22;1.75;;;14.40;99.90;;;;;;5091881;28;20012;-66
2022/05/19 01:39:14;;;;;;;3.47;1.73;;;14.40;99.90;;;;;;5090263;28;20024;-65
2022/05/19 01:42:04;;;;;;;2.28;1.58;;;14.40;99.90;;;;;;5091327;28;20024;-66
2022/05/19 01:44:59;;;;;;;2.97;1.60;;;14.40;99.90;;;;;;5090941;28;20024;-66
2022/05/19 01:47:34;;;;;;;6.35;1.75;;;14.40;99.90;;;;;;5085094;28;20527;-65
2022/05/19 01:50:19;;;;;;;5.10;1.55;;;14.40;99.90;;;;;;5086915;28;20076;-65
2022/05/19 01:52:55;;;;;;;6.80;1.90;;;14.40;99.90;;;;;;5089064;28;20024;-66
2022/05/19 01:55:27;;;;;;;3.15;2.00;;;14.50;99.90;;;;;;5087297;28;20111;-66
2022/05/19 01:58:02;;;;;;;3.97;1.88;;;14.60;99.90;;;;;;5090064;28;20057;-66
2022/05/19 02:00:29;;;;;;;3.58;1.77;;;14.60;99.90;;;;;;5091429;28;20039;-66
2022/05/19 02:03:02;;;;;;;5.32;2.55;;;14.60;99.90;;;;;;5091224;28;20024;-66
2022/05/19 02:05:36;;;;;;;4.35;2.15;;;14.60;99.90;;;;;;5090986;28;20036;-66
2022/05/19 02:08:07;;;;;;;4.43;2.40;;;14.60;99.90;;;;;;5091114;28;20032;-66
2022/05/19 02:10:38;;;;;;;4.00;2.03;;;14.60;99.90;;;;;;5091265;28;20027;-66
2022/05/19 02:13:04;;;;;;;3.55;1.67;;;14.60;99.90;;;;;;5091053;28;20146;-66
2022/05/19 02:15:34;;;;;;;3.15;1.70;;;14.60;99.90;;;;;;5089553;28;20024;-67
2022/05/19 02:18:00;;;;;;;5.35;2.10;;;14.60;99.90;;;;;;5091814;28;20542;-65
2022/05/19 02:20:29;;;;;;;4.93;2.50;;;14.60;99.90;;;;;;5089935;28;20032;-66
2022/05/19 02:22:55;;;;;;;4.97;2.45;;;14.60;99.90;;;;;;5090720;28;20512;-66
2022/05/19 02:25:35;;;;;;;5.47;2.10;;;14.60;99.90;;;;;;5090507;28;20028;-65
2022/05/19 02:28:09;;;;;;;6.50;2.60;;;14.60;99.90;;;;;;5088104;28;20028;-66
2022/05/19 02:30:38;;;;;;;8.27;2.40;;;14.50;99.90;;;;;;5091017;28;20051;-65
2022/05/19 02:33:05;;;;;;;7.93;2.25;;;14.50;99.90;;;;;;5090951;28;20024;-66
2022/05/19 02:35:30;;;;;;;6.03;2.55;;;14.50;99.90;;;;;;5090697;28;20016;-66
2022/05/19 02:37:57;;;;;;;6.28;2.17;;;14.50;99.90;;;;;;5091224;28;20500;-66
2022/05/19 02:40:26;;;;;;;5.05;1.67;;;14.40;99.90;;;;;;5091450;28;20033;-66
2022/05/19 02:42:52;;;;;;;3.63;1.80;;;14.40;99.90;;;;;;5071732;28;20029;-66
2022/05/19 02:45:20;;;;;;;5.72;2.10;;;14.30;99.90;;;;;;5088691;28;20040;-66
2022/05/19 02:47:46;;;;;;;3.20;1.70;;;14.30;99.90;;;;;;5090628;28;20089;-65
2022/05/19 02:50:13;;;;;;;9.15;2.33;;;14.20;99.90;;;;;;5091146;28;20028;-66
2022/05/19 02:52:39;;;;;;;9.43;2.90;;;14.20;99.90;;;;;;5090611;28;20099;-65
2022/05/19 02:55:05;;;;;;;7.03;2.55;;;14.20;99.90;;;;;;5091127;28;20119;-65
2022/05/19 02:57:32;;;;;;;7.72;2.67;;;14.30;99.90;;;;;;5091482;28;20029;-65
2022/05/19 02:59:58;;;;;;;11.32;2.47;;;14.30;99.90;;;;;;5091430;28;20055;-65
2022/05/19 03:02:24;;;;;;;7.63;2.15;;;14.40;99.90;;;;;;5091067;28;20058;-65
2022/05/19 03:04:50;;;;;;;7.30;2.63;;;14.50;99.90;;;;;;5081252;28;20102;-65
2022/05/19 03:07:15;;;;;;;9.05;2.08;;;14.50;99.90;;;;;;5071611;28;20388;-66
2022/05/19 03:09:42;;;;;;;5.72;2.30;;;14.40;99.90;;;;;;5078912;28;20052;-65
2022/05/19 03:12:12;;;;;;;6.97;2.60;;;14.40;99.90;;;;;;5091410;28;20123;-65
2022/05/19 03:14:38;;;;;;;7.32;2.63;;;14.30;99.90;;;;;;5091529;28;20035;-65
2022/05/19 03:17:08;;;;;;;7.30;2.55;;;14.30;99.90;;;;;;5090317;28;20388;-65
2022/05/19 03:19:35;;;;;;;7.97;2.75;;;14.30;99.90;;;;;;5088336;28;20400;-65
2022/05/19 03:22:02;;;;;;;11.88;2.75;;;14.30;99.90;;;;;;5086271;28;20028;-65
2022/05/19 03:24:28;;;;;;;8.23;3.05;;;14.30;99.90;;;;;;5090610;28;20396;-65
2022/05/19 03:26:54;;;;;;;7.18;3.00;;;14.40;99.90;;;;;;5091669;28;20527;-63
2022/05/19 03:29:19;;;;;;;8.65;2.78;;;14.40;99.90;;;;;;5094908;28;20118;-63
2022/05/19 03:31:45;;;;;;;13.00;2.97;;;14.50;99.90;;;;;;5094486;28;20024;-63
2022/05/19 03:34:11;;;;;;;14.35;4.82;;;14.60;99.90;;;;;;5093334;28;20472;-64
2022/05/19 03:36:36;;;;;;;15.65;3.10;;;14.50;99.90;;;;;;5094034;28;20048;-65
2022/05/19 03:39:03;;;;;;;15.75;4.35;;;14.50;99.90;;;;;;5074559;28;20369;-64
2022/05/19 03:41:29;;;;;;;14.80;7.07;;;14.40;99.90;;;;;;5094631;28;20047;-65
2022/05/19 03:43:55;;;;;;;14.75;4.07;;;14.30;99.90;;;;;;5081962;28;20064;-64
2022/05/19 03:46:20;;;;;;;13.48;3.97;;;14.30;99.90;;;;;;5094283;28;20028;-64
2022/05/19 03:48:46;;;;;;;11.93;3.60;;;14.30;99.90;;;;;;5087093;28;20430;-64
2022/05/19 03:51:22;;;;;;;8.73;3.60;;;14.20;99.90;;;;;;5079785;28;20052;-64
2022/05/19 03:53:49;;;;;;;12.35;3.80;;;14.30;99.90;;;;;;5094896;28;20031;-64
2022/05/19 03:56:16;;;;;;;10.32;3.03;;;14.20;99.90;;;;;;5094343;28;20028;-65
2022/05/19 03:58:41;;;;;;;10.55;3.50;;;14.20;99.90;;;;;;5094252;28;20044;-65
2022/05/19 04:01:07;;;;;;;10.38;3.30;;;14.20;99.90;;;;;;5093633;28;20034;-65
2022/05/19 04:03:33;;;;;;;14.25;3.30;;;14.10;99.90;;;;;;5079538;28;20111;-64
2022/05/19 04:05:58;;;;;;;10.13;3.00;;;14.20;99.90;;;;;;5094749;28;20032;-64
2022/05/19 04:08:24;;;;;;;12.55;3.20;;;14.10;99.90;;;;;;5094383;28;20035;-64
2022/05/19 04:10:50;;;;;;;9.18;2.80;;;14.00;99.90;;;;;;5094170;28;20376;-64
2022/05/19 04:13:15;;;;;;;7.75;3.05;;;14.00;99.90;;;;;;5094303;28;20484;-64
2022/05/19 04:15:41;;;;;;;6.20;3.15;;;14.00;99.90;;;;;;5085178;28;20397;-64
2022/05/19 04:18:07;;;;;;;17.83;3.58;;;14.00;99.90;;;;;;5084586;28;20429;-64
2022/05/19 04:20:33;;;;;;;14.00;4.13;;;14.00;99.90;;;;;;5094051;28;20037;-64
2022/05/19 04:23:00;;;;;;;20.35;4.60;;;14.00;99.90;;;;;;5093910;28;20069;-63
2022/05/19 04:25:27;;;;;;;12.15;4.72;;;14.00;99.90;;;;;;5093607;28;20036;-63
2022/05/19 04:27:53;;;;;;;19.48;5.38;;;14.00;99.90;;;;;;5093388;28;20068;-64
2022/05/19 04:30:19;;;;;;;14.02;4.28;;;14.00;99.90;;;;;;5093646;28;20117;-64
2022/05/19 04:32:45;;;;;;;19.63;5.38;;;14.00;99.90;;;;;;5084083;28;20563;-64
2022/05/19 04:35:12;;;;;;;13.02;4.63;;;14.10;99.90;;;;;;5093927;28;20043;-64
2022/05/19 04:37:38;;;;;;;11.75;3.35;;;14.10;99.90;;;;;;5090571;28;20064;-64
2022/05/19 04:40:05;;;;;;;12.27;3.80;;;14.20;99.90;;;;;;5083321;28;20043;-63
2022/05/19 04:42:31;;;;;;;11.20;3.42;;;14.20;99.90;;;;;;5092286;28;20089;-64
2022/05/19 04:44:57;;;;;;;8.68;2.55;;;14.20;99.90;;;;;;5093795;28;20035;-64
2022/05/19 04:47:22;;;;;;;13.10;4.13;;;14.20;99.90;;;;;;5092347;28;20031;-64
2022/05/19 04:49:48;;;;;;;16.45;4.85;;;14.20;99.90;;;;;;5093270;28;20027;-64
2022/05/19 04:52:14;;;;;;;11.02;3.88;;;14.20;99.90;;;;;;5093055;28;20110;-64
2022/05/19 04:54:40;;;;;;;13.88;4.43;;;14.20;99.90;;;;;;5091849;28;20053;-64
2022/05/19 04:57:07;;;;;;;14.82;5.35;;;14.10;99.90;;;;;;5093390;28;20419;-64
2022/05/19 04:59:36;;;;;;;14.82;4.78;;;14.10;99.90;;;;;;5093291;28;20119;-64
2022/05/19 05:02:02;;;;;;;16.95;6.13;;;14.10;99.90;;;;;;5092015;28;20488;-64
2022/05/19 05:04:28;;;;;;;16.15;4.85;;;14.20;99.90;;;;;;5093137;28;20030;-64
2022/05/19 05:06:54;;;;;;;15.32;4.30;;;14.20;99.90;;;;;;5093365;28;20028;-64
2022/05/19 05:09:19;;;;;;;16.85;5.25;;;14.20;99.90;;;;;;5092252;28;20028;-64
2022/05/19 05:11:45;;;;;;;14.43;5.85;;;14.30;99.90;;;;;;5092798;28;20028;-64
2022/05/19 05:14:11;;;;;;;14.45;4.57;;;14.30;99.90;;;;;;5092978;28;20036;-64
2022/05/19 05:16:37;;;;;;;10.23;4.55;;;14.40;99.90;;;;;;5092147;28;20400;-64
2022/05/19 05:19:04;;;;;;;14.25;4.68;;;14.40;99.90;;;;;;5091279;28;20036;-64
2022/05/19 05:21:30;;;;;;;21.63;5.40;;;14.40;99.90;;;;;;5090941;28;20024;-64
2022/05/19 05:23:55;;;;;;;19.13;5.20;;;14.40;99.90;;;;;;5091832;28;20377;-65
2022/05/19 05:26:21;;;;;;;17.40;6.22;;;14.40;99.90;;;;;;5098390;28;20460;-65
2022/05/19 05:28:47;;;;;;;21.27;5.95;;;14.40;99.90;;;;;;5100289;28;20476;-64
2022/05/19 05:31:13;;;;;;;24.45;6.57;;;14.40;99.90;;;;;;5091834;28;20024;-65
2022/05/19 05:33:39;;;;;;;17.10;7.55;;;14.40;99.90;;;;;;5091934;28;20062;-65
2022/05/19 05:36:04;;;;;;;19.65;8.45;;;14.50;99.90;;;;;;5091484;28;20378;-65
2022/05/19 05:38:30;;;;;;;31.27;9.20;;;14.50;99.90;;;;;;5091900;28;20081;-65
2022/05/19 05:40:56;;;;;;;26.05;10.05;;;14.50;99.90;;;;;;5091443;28;20024;-65
2022/05/19 05:43:22;;;;;;;27.85;11.10;;;14.50;99.90;;;;;;5091128;28;20392;-65
2022/05/19 05:45:49;;;;;;;25.45;10.50;;;14.50;99.90;;;;;;5091759;28;20020;-64
2022/05/19 05:48:16;;;;;;;27.02;10.63;;;14.50;99.90;;;;;;5091115;28;20064;-65
2022/05/19 05:50:44;;;;;;;31.00;10.40;;;14.50;99.90;;;;;;5087261;28;20036;-64
2022/05/19 05:53:10;;;;;;;27.90;11.77;;;14.50;99.90;;;;;;5091973;28;20032;-65
2022/05/19 05:55:37;;;;;;;28.35;10.80;;;14.50;99.90;;;;;;5094130;28;20069;-65
2022/05/19 05:58:08;;;;;;;33.20;12.25;;;14.50;99.90;;;;;;5090236;28;20361;-66
2022/05/19 06:00:34;;;;;;;34.15;12.90;;;14.50;99.90;;;;;;5092611;28;20032;-67
2022/05/19 06:03:00;;;;;;;30.88;13.32;;;14.50;99.90;;;;;;5078312;28;20503;-67
2022/05/19 06:05:25;;;;;;;31.13;12.95;;;14.50;99.90;;;;;;5072117;28;20040;-65
2022/05/19 06:07:51;;;;;;;33.50;14.20;;;14.50;99.90;;;;;;5080218;28;20035;-64
2022/05/19 06:10:17;;;;;;;28.65;12.35;;;14.50;99.90;;;;;;5092957;28;20138;-66
2022/05/19 06:12:43;;;;;;;27.88;12.48;;;14.50;99.90;;;;;;5090048;28;20108;-68
2022/05/19 06:15:11;;;;;;;26.23;12.65;;;14.50;99.90;;;;;;5090641;28;20031;-66
2022/05/19 06:17:39;;;;;;;23.60;11.70;;;14.50;99.90;;;;;;5089284;28;20039;-67
2022/05/19 06:20:07;;;;;;;26.60;11.63;;;14.50;99.90;;;;;;5078953;28;20036;-66
2022/05/19 06:22:33;;;;;;;;;;;14.50;99.90;;;;;;5070193;28;20044;-66
2022/05/19 06:24:58;;;;;;;19.65;10.70;;;14.60;99.90;;;;;;5071776;28;19912;-67
2022/05/19 06:27:24;;;;;;;23.30;11.10;;;14.60;99.90;;;;;;5071066;28;20431;-66
2022/05/19 06:29:50;;;;;;;18.75;10.35;;;14.70;99.90;;;;;;5070887;28;20483;-66
2022/05/19 06:32:15;;;;;;;20.42;10.70;;;14.80;99.90;;;;;;5071641;28;20048;-66
2022/05/19 06:34:41;;;;;;;20.75;9.90;;;14.80;99.90;;;;;;5071659;28;20066;-66
2022/05/19 06:37:06;;;;;;;18.63;9.95;;;14.80;99.90;;;;;;5071720;28;20021;-66
2022/05/19 06:39:32;;;;;;;17.40;9.35;;;14.90;99.90;;;;;;5071497;28;20044;-66
2022/05/19 06:42:00;;;;;;;16.63;9.57;;;14.90;99.90;;;;;;5071517;28;20111;-66
2022/05/19 06:44:29;;;;;;;18.67;9.32;;;14.90;99.90;;;;;;5071604;28;20112;-66
2022/05/19 06:46:55;;;;;;;15.15;8.55;;;14.90;99.90;;;;;;5071337;28;20063;-66
2022/05/19 06:49:21;;;;;;;14.00;9.00;;;14.80;99.90;;;;;;5073507;28;20405;-66
2022/05/19 06:51:47;;;;;;;15.95;9.40;;;14.80;99.90;;;;;;5091391;28;20044;-66
2022/05/19 06:54:12;;;;;;;14.30;9.63;;;14.80;99.90;;;;;;5090383;28;20037;-66
2022/05/19 06:56:38;;;;;;;20.65;9.52;;;14.70;99.90;;;;;;5091785;28;20380;-66
2022/05/19 06:59:04;;;;;;;18.95;9.40;;;14.60;99.90;;;;;;5091616;28;20383;-65
2022/05/19 07:01:31;;;;;;;20.58;10.55;;;14.60;99.90;;;;;;5091384;28;20024;-66
2022/05/19 07:03:57;;;;;;;17.77;10.40;;;14.50;99.90;;;;;;5095556;28;20245;-66
2022/05/19 07:06:24;;;;;;;17.95;9.57;;;14.50;99.90;;;;;;5095543;28;20032;-65
2022/05/19 07:08:50;;;;;;;20.40;10.33;;;14.50;99.90;;;;;;5095717;28;20032;-65
2022/05/19 07:11:24;;;;;;;15.95;9.50;;;14.50;99.90;;;;;;5095537;28;20396;-65
2022/05/19 07:14:10;;;;;;;15.30;9.05;;;14.50;99.90;;;;;;5095512;28;20028;-67
2022/05/19 07:16:36;;;;;;;17.55;9.60;;;14.50;99.90;;;;;;5094836;28;20035;-66
2022/05/19 07:21:48;;;;;;;16.38;8.88;;;14.50;99.90;;;;;;5095648;28;20059;-65
2022/05/19 07:24:19;;;;;;;19.30;10.10;;;14.50;99.90;;;;;;5095280;28;20483;-65
2022/05/19 07:26:54;;;;;;;21.63;10.30;;;14.40;99.90;;;;;;5095111;28;20567;-65
2022/05/19 07:29:21;;;;;;;25.35;11.00;;;14.40;99.90;;;;;;5094754;28;20035;-65
2022/05/19 07:31:48;;;;;;;22.27;10.23;;;14.40;99.90;;;;;;5095081;28;20027;-65
2022/05/19 07:34:16;;;;;;;23.50;11.07;;;14.40;99.90;;;;;;5095100;28;20480;-64
2022/05/19 07:36:42;;;;;;;27.70;13.07;;;14.50;99.90;;;;;;5095085;28;20016;-65
2022/05/19 07:39:08;;;;;;;23.00;11.68;;;14.50;99.90;;;;;;5095137;28;20384;-65
2022/05/19 07:41:35;;;;;;;20.50;11.00;;;14.60;99.90;;;;;;5095033;28;20043;-66
2022/05/19 07:44:00;;;;;;;19.10;9.80;;;14.70;99.90;;;;;;5094695;28;20032;-65
2022/05/19 07:46:28;;;;;;;19.70;11.82;;;14.70;99.90;;;;;;5094976;28;20365;-64
2022/05/19 07:48:55;;;;;;;25.30;12.05;;;14.60;99.90;;;;;;5094823;28;20055;-65
2022/05/19 07:51:36;;;;;;;25.17;10.68;;;14.60;99.90;;;;;;5094719;28;20468;-64
2022/05/19 07:54:06;;;;;;;18.92;11.43;;;14.60;99.90;;;;;;5094681;28;20055;-65
2022/05/19 07:56:33;;;;;;;24.42;11.98;;;14.60;99.90;;;;;;5094455;28;20024;-65
2022/05/19 07:59:00;;;;;;;18.85;11.27;;;14.60;99.90;;;;;;5094736;28;20118;-65
2022/05/19 08:01:26;;;;;;;18.00;10.10;;;14.60;99.90;;;;;;5094667;28;20054;-64
2022/05/19 08:03:52;;;;;;;15.70;9.27;;;14.70;99.90;;;;;;5094449;28;20081;-65
2022/05/19 08:06:18;;;;;;;13.93;9.05;;;14.70;99.90;;;;;;5094369;28;20024;-65
2022/05/19 08:08:44;;;;;;;17.95;9.43;;;14.70;99.90;;;;;;5094205;28;20020;-65
2022/05/19 08:11:10;;;;;;;17.73;8.55;;;14.70;99.90;;;;;;5094276;28;20028;-64
2022/05/19 08:16:22;;;;;;;12.75;7.60;;;14.70;99.90;;;;;;5094311;28;20027;-65
2022/05/19 08:18:49;;;;;;;13.07;8.50;;;14.70;99.90;;;;;;5094226;28;20567;-65
2022/05/19 08:21:15;;;;;;;15.32;7.72;;;14.80;99.90;;;;;;5093698;28;20062;-65
2022/05/19 08:23:45;;;;;;;14.65;8.13;;;14.90;99.90;;;;;;5073536;28;20068;-64
2022/05/19 08:26:12;;;;;;;11.70;6.70;;;14.90;99.90;;;;;;5074102;28;20056;-64
2022/05/19 08:28:39;;;;;;;12.18;7.55;;;15.10;99.90;;;;;;5073954;28;20093;-64
2022/05/19 08:31:07;;;;;;;16.38;8.00;;;15.10;99.90;;;;;;5073899;28;20369;-65
2022/05/19 08:33:34;;;;;;;12.80;6.70;;;15.30;99.90;;;;;;5073547;28;20098;-65
2022/05/19 08:36:02;;;;;;;13.35;7.28;;;15.30;99.90;;;;;;5074014;28;20028;-63
2022/05/19 08:38:27;;;;;;;15.25;8.32;;;15.30;99.90;;;;;;5074001;28;20519;-63
2022/05/19 08:41:00;;;;;;;12.90;7.75;;;15.40;99.90;;;;;;5073684;28;20052;-64
2022/05/19 08:43:30;;;;;;;13.90;7.68;;;15.40;99.90;;;;;;5073448;28;20032;-64
2022/05/19 08:46:00;;;;;;;15.95;8.00;;;15.50;99.90;;;;;;5073622;28;20515;-64
2022/05/19 08:48:27;;;;;;;9.75;6.85;;;15.60;99.90;;;;;;5073025;28;20028;-63
2022/05/19 08:51:07;;;;;;;12.43;7.32;;;15.70;99.90;;;;;;5073442;28;20047;-64
2022/05/19 08:53:39;;;;;;;9.75;5.72;;;15.90;99.90;;;;;;5073377;28;20017;-64
2022/05/19 08:56:40;;;;;;;6.82;3.05;;;16.00;99.90;;;;;;5073464;28;20547;-64
2022/05/19 08:59:14;;;;;;;5.60;3.65;;;15.90;99.90;;;;;;5059743;28;20040;-63
2022/05/19 09:01:47;;;;;;;6.35;3.67;;;15.80;99.90;;;;;;5073438;28;20376;-63
2022/05/19 09:04:30;;;;;;;6.82;3.13;;;15.90;99.90;;;;;;5073100;28;20081;-63
2022/05/19 09:10:05;;;;;;;6.50;3.25;;;15.90;99.90;;;;;;5073284;28;20078;-64
2022/05/19 09:12:35;;;;;;;7.30;2.75;;;15.90;99.90;;;;;;5073113;28;20025;-64
2022/05/19 09:15:03;;;;;;;5.95;3.97;;;16.10;99.90;;;;;;5072980;28;20013;-63
2022/05/19 09:17:31;;;;;;;3.17;2.35;;;16.00;99.90;;;;;;5072725;28;20037;-64
2022/05/19 09:20:01;;;;;;;4.28;2.40;;;16.00;99.90;;;;;;5072709;28;20062;-66
2022/05/19 09:22:33;;;;;;;6.35;3.75;;;16.00;99.90;;;;;;5082615;28;20031;-64
2022/05/19 09:25:03;;;;;;;4.07;3.17;;;15.90;99.90;;;;;;5092818;28;20032;-64
2022/05/19 09:27:29;;;;;;;5.53;4.20;;;15.80;99.90;;;;;;5092763;28;20527;-64
2022/05/19 09:29:58;;;;;;;5.55;4.20;;;15.90;99.90;;;;;;5092937;28;20469;-65
2022/05/19 09:32:31;;;;;;;5.35;3.72;;;16.10;99.90;;;;;;5092551;28;20044;-66
2022/05/19 09:35:25;;;;;;;4.40;3.10;;;16.50;99.90;;;;;;5092602;28;20111;-66
2022/05/19 09:38:12;;;;;;;4.57;2.47;;;17.00;99.90;;;;;;5092409;28;20032;-65
2022/05/19 09:40:40;;;;;;;5.03;2.65;;;17.50;99.90;;;;;;5092030;28;20034;-65
2022/05/19 09:43:17;;;;;;;4.20;2.17;;;17.40;99.90;;;;;;5091450;28;20119;-65
2022/05/19 09:45:59;;;;;;;2.25;2.00;;;16.90;99.90;;;;;;5092423;28;20016;-66
2022/05/19 09:48:27;;;;;;;3.60;2.03;;;17.00;99.90;;;;;;5090948;28;20043;-66
2022/05/19 09:51:03;;;;;;;3.50;2.08;;;16.90;99.90;;;;;;5092221;28;20028;-67
2022/05/19 09:53:36;;;;;;;3.95;1.73;;;16.90;99.90;;;;;;5092308;28;20028;-66
2022/05/19 09:56:04;;;;;;;2.17;1.20;;;16.90;99.90;;;;;;5092368;28;20024;-65
2022/05/19 09:58:34;;;;;;;3.30;1.67;;;16.90;99.90;;;;;;5092337;28;20024;-65
2022/05/19 10:01:16;;;;;;;1.80;0.98;;;17.00;99.90;;;;;;5092387;28;20020;-63
2022/05/19 10:03:51;;;;;;;2.58;1.20;;;17.20;99.90;;;;;;5092024;28;20028;-63
2022/05/19 10:06:24;;;;;;;3.97;1.08;;;17.50;99.90;;;;;;5092294;28;20070;-65
2022/05/19 10:09:05;;;;;;;5.32;2.35;;;17.80;99.90;;;;;;5092123;28;20038;-64
2022/05/19 10:11:31;;;;;;;1.83;0.98;;;18.30;99.90;;;;;;5092258;28;20036;-63
2022/05/19 10:14:02;;;;;;;3.92;1.65;;;18.70;99.90;;;;;;5091853;28;20365;-62
2022/05/19 10:16:56;;;;;;;3.72;1.00;;;19.20;98.80;;;;;;5092305;28;20019;-63
2022/05/19 10:19:57;;;;;;;1.45;1.17;;;19.70;98.40;;;;;;5084401;28;20028;-63
2022/05/19 10:22:57;;;;;;;3.10;1.08;;;19.50;97.20;;;;;;5084333;28;20043;-63
2022/05/19 10:25:57;;;;;;;4.20;1.50;;;19.90;99.50;;;;;;5092065;28;20058;-62
2022/05/19 10:31:40;;;;;;;3.33;1.90;;;20.60;97.40;;;;;;5091948;28;20039;-64
2022/05/19 10:34:41;;;;;;;2.67;2.13;;;20.10;97.60;;;;;;5091959;28;20028;-65
2022/05/19 10:37:34;;;;;;;2.85;1.55;;;19.90;98.40;;;;;;5091664;28;20028;-64
2022/05/19 10:40:17;;;;;;;3.65;2.30;;;20.20;97.60;;;;;;5091906;28;20095;-66
2022/05/19 10:43:09;;;;;;;3.85;2.35;;;19.90;96.60;;;;;;5091811;28;20022;-63
2022/05/19 10:45:40;;;;;;;3.35;2.30;;;19.40;98.50;;;;;;5091402;28;20036;-63
2022/05/19 10:48:40;;;;;;;2.75;2.03;;;19.20;98.40;;;;;;5091845;28;20036;-62
2022/05/19 10:51:27;;;;;;;2.30;1.98;;;19.50;97.80;;;;;;5091750;28;20035;-63
2022/05/19 10:54:22;;;;;;;3.55;2.33;;;19.60;97.70;;;;;;5091573;28;20024;-62
2022/05/19 10:57:25;;;;;;;4.38;2.38;;;19.20;98.20;;;;;;5091858;28;20107;-64
2022/05/19 11:00:01;;;;;;;2.92;2.15;;;19.40;98.60;;;;;;5091559;28;20395;-63
2022/05/19 11:02:38;;;;;;;3.27;2.07;;;19.40;97.70;;;;;;5091518;28;20036;-64
2022/05/19 11:05:27;;;;;;;5.97;2.20;;;19.80;98.10;;;;;;5091599;28;20263;-63
2022/05/19 11:08:09;;;;;;;3.85;2.65;;;20.00;98.00;;;;;;5091587;28;20109;-65
2022/05/19 11:10:52;;;;;;;5.28;2.30;;;19.90;97.80;;;;;;5091588;28;20099;-65
2022/05/19 11:13:50;;;;;;;3.47;2.10;;;19.90;96.20;;;;;;5091711;28;20024;-62
2022/05/19 11:16:32;;;;;;;2.67;1.75;;;20.10;98.10;;;;;;5067995;28;20032;-62
2022/05/19 11:19:14;;;;;;;3.40;1.88;;;20.40;96.30;;;;;;5091532;28;20035;-63
2022/05/19 11:21:49;;;;;;;3.92;2.42;;;20.40;96.00;;;;;;5091344;28;20036;-67
2022/05/19 11:24:33;;;;;;;3.78;1.88;;;20.30;96.20;;;;;;5091519;28;20028;-67
2022/05/19 11:27:20;;;;;;;3.72;2.20;;;19.70;95.40;;;;;;5091138;28;20047;-63
2022/05/19 11:29:54;;;;;;;4.13;2.28;;;19.90;97.00;;;;;;5091536;28;20031;-65
2022/05/19 11:32:33;;;;;;;5.68;2.08;;;20.00;95.90;;;;;;5091475;28;20046;-66
2022/05/19 11:35:08;;;;;;;5.95;2.97;;;20.30;96.60;;;;;;5091311;28;20108;-67
2022/05/19 11:37:56;;;;;;;7.40;2.72;;;20.50;95.10;;;;;;5089869;28;20032;-66
2022/05/19 11:40:42;;;;;;;6.28;2.15;;;20.50;95.40;;;;;;5091286;28;20020;-67
2022/05/19 11:43:16;;;;;;;4.72;2.53;;;20.70;95.70;;;;;;5091313;28;20035;-65
2022/05/19 11:45:56;;;;;;;6.13;2.60;;;20.50;95.00;;;;;;5091162;28;20024;-65
2022/05/19 11:57:33;;;;;;;4.63;1.83;;;20.10;94.60;;;;;;5095124;28;20491;-68
2022/05/19 12:00:00;;;;;;;5.47;1.23;;;20.60;94.90;;;;;;5093749;28;20058;-66
2022/05/19 12:02:48;;;;;;;4.57;1.23;;;21.10;93.40;;;;;;5093364;28;20032;-66
2022/05/19 12:05:40;;;;;;;2.58;1.10;;;21.30;93.10;;;;;;5095164;28;20028;-64
2022/05/19 12:08:12;;;;;;;5.07;1.20;;;21.30;94.70;;;;;;5094761;28;20123;-64
2022/05/19 12:10:42;;;;;;;4.90;1.65;;;21.50;91.30;;;;;;5094427;28;20020;-66
2022/05/19 12:13:10;;;;;;;6.50;1.73;;;21.40;91.10;;;;;;5095024;28;20472;-65
2022/05/19 12:15:56;;;;;;;5.50;1.75;;;21.60;92.40;;;;;;5094603;28;20025;-65
2022/05/19 12:18:24;;;;;;;3.50;1.75;;;22.80;91.00;;;;;;5094692;28;20059;-64
2022/05/19 12:20:53;;;;;;;4.55;1.65;;;22.80;90.40;;;;;;5094518;28;20028;-64
2022/05/19 12:23:24;;;;;;;4.68;2.35;;;22.00;89.80;;;;;;5094250;28;20048;-63
2022/05/19 12:26:11;;;;;;;7.20;2.80;;;21.60;91.10;;;;;;5094394;28;20094;-66
2022/05/19 12:29:04;;;;;;;5.70;2.35;;;21.50;91.50;;;;;;5094130;28;20035;-67
2022/05/19 12:34:49;;;;;;;3.42;1.33;;;21.70;91.40;;;;;;5094448;28;20047;-64
2022/05/19 12:37:15;;;;;;;4.47;1.35;;;22.10;91.10;;;;;;5078288;28;20041;-64
2022/05/19 12:39:51;;;;;;;4.35;1.58;;;22.00;90.00;;;;;;5094118;28;20038;-63
2022/05/19 12:42:35;;;;;;;7.80;1.85;;;22.10;92.10;;;;;;5094459;28;20484;-62
2022/05/19 12:45:20;;;;;;;5.68;1.95;;;21.90;90.50;;;;;;5094066;28;20028;-61
2022/05/19 12:47:59;;;;;;;6.85;2.30;;;21.20;91.70;;;;;;5094137;28;20032;-64
2022/05/19 12:50:44;;;;;;;7.22;2.42;;;20.80;91.80;;;;;;5093550;28;20526;-66
2022/05/19 12:53:31;;;;;;;5.68;1.95;;;20.30;92.40;;;;;;5094002;28;20025;-64
2022/05/19 12:55:58;;;;;;;3.40;1.20;;;20.40;93.00;;;;;;5072139;28;20051;-64
2022/05/19 12:58:33;;;;;;;3.05;1.40;;;20.20;93.20;;;;;;5093505;28;20028;-67
2022/05/19 13:01:17;;;;;;;5.07;1.23;;;19.70;93.70;;;;;;5093250;28;20040;-66
2022/05/19 13:03:49;;;;;;;4.95;1.75;;;19.60;94.30;;;;;;5093858;28;20070;-66
2022/05/19 13:06:15;;;;;;;3.38;1.80;;;19.80;94.70;;;;;;5093476;28;20050;-64
2022/05/19 13:08:52;;;;;;;6.25;2.47;;;19.50;94.00;;;;;;5092360;28;20036;-65
2022/05/19 13:11:22;;;;;;;4.57;1.73;;;19.70;95.50;;;;;;5092304;28;20024;-64
2022/05/19 13:13:55;;;;;;;6.07;1.80;;;20.10;95.40;;;;;;5093896;28;20028;-66
2022/05/19 13:16:33;;;;;;;5.35;1.73;;;20.20;93.20;;;;;;5093571;28;20036;-65
2022/05/19 13:19:00;;;;;;;7.63;2.60;;;19.60;95.20;;;;;;5093324;28;20024;-65
2022/05/19 13:21:32;;;;;;;5.53;2.10;;;19.20;95.50;;;;;;5093317;28;20026;-65
2022/05/19 13:24:06;;;;;;;10.20;2.88;;;19.00;96.00;;;;;;5093255;28;20040;-66
2022/05/19 13:26:33;;;;;;;6.63;2.72;;;19.10;96.60;;;;;;5093365;28;20076;-65